Time;durP1;ratioP1;P1;durP2;ratioP2;P2;SDS_P1;SDS_P2;PMS_P1;PMS_P2;Temp;Humidity;BMP_temperature;BMP_pressure;BME280_temperature;BME280_humidity;BME280_pressure;Samples;Min_cycle;Max_cycle;Signal;HPM_P1;HPM_P2
2021/10/19 00:00:28;;;;;;;28.70;25.60;;;;;;;9.36;90.84;101389.25;229649;1196;138905;-77
2021/10/19 00:05:41;;;;;;;29.10;25.80;;;;;;;9.31;91.04;101389.81;230865;1195;139361;-76
2021/10/19 00:10:42;;;;;;;27.90;23.80;;;;;;;9.27;91.11;101394.15;229688;1187;139682;-75
2021/10/19 00:15:44;;;;;;;27.40;24.40;;;;;;;9.28;91.02;101399.88;229771;1196;138863;-73
2021/10/19 00:20:46;;;;;;;26.10;23.10;;;;;;;9.25;91.13;101403.16;230231;1196;139056;-75
2021/10/19 00:25:48;;;;;;;26.10;22.90;;;;;;;9.22;91.40;101402.33;229696;1195;138147;-74
2021/10/19 00:30:50;;;;;;;25.20;22.60;;;;;;;9.22;91.68;101400.41;229634;1196;139271;-75
2021/10/19 00:35:52;;;;;;;22.50;20.10;;;;;;;9.28;91.62;101400.77;230003;1196;139041;-76
2021/10/19 00:40:54;;;;;;;23.50;21.00;;;;;;;9.23;91.55;101397.29;229643;1196;140008;-75
2021/10/19 00:45:56;;;;;;;22.60;20.20;;;;;;;9.25;92.05;101400.34;229847;1195;139714;-75
2021/10/19 00:50:58;;;;;;;25.50;22.60;;;;;;;9.30;91.80;101404.84;229699;1196;139058;-76
2021/10/19 00:56:00;;;;;;;24.00;21.40;;;;;;;9.39;91.45;101392.37;229856;1196;138714;-73
2021/10/19 01:01:01;;;;;;;22.60;20.30;;;;;;;9.45;91.32;101392.76;229723;1197;139045;-75
2021/10/19 01:06:09;;;;;;;24.10;21.60;;;;;;;9.50;91.16;101398.31;229675;1196;139383;-74
2021/10/19 01:11:10;;;;;;;23.70;20.90;;;;;;;9.51;90.94;101398.41;229747;1196;138406;-75
2021/10/19 01:16:13;;;;;;;19.60;17.50;;;;;;;9.41;91.05;101393.61;229979;1196;139222;-76
2021/10/19 01:21:14;;;;;;;19.30;17.30;;;;;;;9.43;91.11;101395.56;230030;1197;139692;-76
2021/10/19 01:26:16;;;;;;;19.50;17.60;;;;;;;9.53;90.85;101397.20;229666;1196;139801;-73
2021/10/19 01:31:18;;;;;;;10.50;9.50;;;;;;;9.56;90.74;101395.52;232032;1195;139439;-75
2021/10/19 01:36:20;;;;;;;6.40;5.80;;;;;;;9.38;89.57;101388.89;232603;1187;138721;-74
2021/10/19 01:41:21;;;;;;;5.70;5.10;;;;;;;9.19;89.16;101387.23;235983;1195;138052;-74
2021/10/19 01:46:23;;;;;;;4.60;3.80;;;;;;;9.08;88.88;101385.08;231084;1195;138786;-74
2021/10/19 01:51:25;;;;;;;4.90;4.50;;;;;;;8.99;88.36;101376.79;229867;1197;138707;-76
2021/10/19 01:56:27;;;;;;;4.40;4.00;;;;;;;8.95;87.90;101373.27;230042;1195;138840;-75
2021/10/19 02:01:29;;;;;;;5.50;4.60;;;;;;;8.85;87.88;101373.73;230376;1196;138478;-73
2021/10/19 02:06:30;;;;;;;4.90;4.40;;;;;;;8.81;88.19;101370.28;229902;1196;138520;-70
2021/10/19 02:11:32;;;;;;;5.10;4.60;;;;;;;8.76;88.25;101373.83;229734;1196;138834;-74
2021/10/19 02:16:34;;;;;;;6.80;4.80;;;;;;;8.67;88.41;101375.41;230172;1196;138572;-78
2021/10/19 02:21:35;;;;;;;5.00;4.50;;;;;;;8.72;88.10;101378.19;229929;1195;138821;-70
2021/10/19 02:26:37;;;;;;;5.00;4.60;;;;;;;8.71;87.46;101390.41;229945;1200;138420;-75
2021/10/19 02:31:39;;;;;;;5.30;4.80;;;;;;;8.56;88.06;101388.84;229619;1195;138600;-74
2021/10/19 02:36:40;;;;;;;4.70;4.30;;;;;;;8.59;88.37;101391.84;229635;1195;139237;-75
2021/10/19 02:41:43;;;;;;;6.30;5.00;;;;;;;8.58;88.29;101389.77;229887;1196;139159;-74
2021/10/19 02:46:45;;;;;;;5.70;5.20;;;;;;;8.65;88.06;101397.22;229981;1195;138612;-74
2021/10/19 02:51:46;;;;;;;5.40;4.90;;;;;;;8.63;87.58;101401.94;229639;1196;137966;-74
2021/10/19 02:56:48;;;;;;;6.40;5.80;;;;;;;8.56;88.04;101398.21;229754;1196;139917;-74
2021/10/19 03:01:50;;;;;;;5.10;4.60;;;;;;;8.56;88.11;101398.35;229730;1200;138807;-75
2021/10/19 03:06:52;;;;;;;5.20;4.70;;;;;;;8.58;87.98;101404.39;229785;1196;139211;-75
2021/10/19 03:11:53;;;;;;;5.90;5.30;;;;;;;8.54;87.78;101409.20;230485;1195;138236;-75
2021/10/19 03:16:55;;;;;;;5.70;5.20;;;;;;;8.54;87.88;101406.65;229467;1196;138410;-74
2021/10/19 03:21:57;;;;;;;5.50;5.00;;;;;;;8.47;88.14;101405.73;230233;1197;138596;-76
2021/10/19 03:26:59;;;;;;;4.90;4.50;;;;;;;8.41;88.35;101401.79;230527;1196;138915;-75
2021/10/19 03:32:00;;;;;;;5.60;4.90;;;;;;;8.45;88.23;101404.61;229623;1195;139051;-73
2021/10/19 03:37:02;;;;;;;5.90;5.30;;;;;;;8.48;87.82;101408.63;229537;1195;138451;-75
2021/10/19 03:42:04;;;;;;;6.80;6.10;;;;;;;8.46;87.94;101400.38;229285;1195;138519;-73
2021/10/19 03:47:06;;;;;;;5.50;5.00;;;;;;;8.44;88.03;101399.10;229613;1202;138328;-76
2021/10/19 03:52:08;;;;;;;6.50;5.40;;;;;;;8.39;88.25;101400.36;229737;1196;138926;-75
2021/10/19 03:57:10;;;;;;;8.00;5.10;;;;;;;8.31;88.05;101395.81;229884;1195;138875;-74
2021/10/19 04:02:11;;;;;;;5.80;5.00;;;;;;;8.28;88.32;101395.15;229759;1181;138349;-72
2021/10/19 04:07:14;;;;;;;6.30;5.70;;;;;;;8.30;88.51;101395.39;230268;1196;138292;-75
2021/10/19 04:12:15;;;;;;;6.30;5.70;;;;;;;8.30;88.44;101386.79;230089;1195;248451;-73
2021/10/19 04:17:17;;;;;;;5.60;5.10;;;;;;;8.20;88.64;101383.70;229553;1196;138583;-75
2021/10/19 04:22:22;;;;;;;6.90;6.20;;;;;;;8.21;88.80;101385.34;229729;1199;139022;-75
2021/10/19 04:27:24;;;;;;;6.20;5.60;;;;;;;8.14;88.64;101385.02;229667;1200;138267;-74
2021/10/19 04:32:25;;;;;;;6.60;6.00;;;;;;;8.01;89.25;101383.64;229672;1195;138362;-76
2021/10/19 04:37:27;;;;;;;7.50;6.70;;;;;;;7.97;89.35;101382.20;229937;1187;138844;-76
2021/10/19 04:42:33;;;;;;;7.20;6.50;;;;;;;7.96;89.90;101386.64;232155;1195;139011;-76
2021/10/19 04:47:35;;;;;;;6.60;6.00;;;;;;;8.08;89.67;101395.18;232219;1195;138332;-76
2021/10/19 04:52:36;;;;;;;7.40;6.70;;;;;;;8.12;89.17;101399.73;233800;1194;138584;-74
2021/10/19 04:57:38;;;;;;;8.20;7.30;;;;;;;8.21;89.03;101403.63;231902;1195;138311;-76
2021/10/19 05:02:47;;;;;;;8.50;7.70;;;;;;;8.17;89.19;101402.67;236205;1194;137343;-74
2021/10/19 05:07:50;;;;;;;9.30;8.30;;;;;;;8.21;89.18;101410.62;230234;1196;137919;-74
2021/10/19 05:12:51;;;;;;;8.40;7.40;;;;;;;8.27;88.97;101415.63;229714;1195;138687;-76
2021/10/19 05:17:53;;;;;;;8.60;7.80;;;;;;;8.26;89.07;101418.66;231617;1195;138857;-74
2021/10/19 05:22:56;;;;;;;9.00;8.10;;;;;;;8.32;89.06;101424.20;231582;1195;138416;-74
2021/10/19 05:27:58;;;;;;;8.50;7.70;;;;;;;8.35;88.78;101430.30;230559;1195;138017;-75
2021/10/19 05:33:03;;;;;;;8.60;7.70;;;;;;;8.30;89.47;101421.86;230695;1195;141474;-77
2021/10/19 05:38:05;;;;;;;7.90;6.60;;;;;;;8.28;89.43;101426.25;229904;1195;138503;-74
2021/10/19 05:43:06;;;;;;;7.60;6.90;;;;;;;8.35;89.35;101427.34;229805;1195;138823;-76
2021/10/19 05:48:08;;;;;;;7.30;6.70;;;;;;;8.33;89.14;101423.41;229821;1197;138307;-76
2021/10/19 05:53:10;;;;;;;8.10;7.30;;;;;;;8.30;89.55;101422.24;230476;1196;137798;-75
2021/10/19 05:58:11;;;;;;;8.00;7.20;;;;;;;8.32;89.45;101417.52;229841;1196;137808;-76
2021/10/19 06:03:13;;;;;;;8.00;7.20;;;;;;;8.27;89.78;101419.48;229832;1180;138810;-76
2021/10/19 06:08:15;;;;;;;8.40;7.60;;;;;;;8.36;89.97;101419.55;230056;1195;139221;-75
2021/10/19 06:13:17;;;;;;;9.80;8.20;;;;;;;8.42;89.65;101417.34;229629;1195;138790;-75
2021/10/19 06:18:19;;;;;;;9.70;8.60;;;;;;;8.40;89.65;101417.14;230444;1187;138449;-77
2021/10/19 06:23:20;;;;;;;10.60;8.80;;;;;;;8.36;89.86;101419.51;230098;1196;138716;-75
2021/10/19 06:28:23;;;;;;;10.70;9.00;;;;;;;8.34;89.97;101419.80;229666;1199;138904;-75
2021/10/19 06:33:25;;;;;;;9.90;8.90;;;;;;;8.37;90.42;101425.58;229699;1196;138895;-75
2021/10/19 06:38:26;;;;;;;11.20;10.10;;;;;;;8.43;90.48;101427.27;229991;1195;139500;-75
2021/10/19 06:43:28;;;;;;;12.20;11.00;;;;;;;8.46;90.40;101426.73;229904;1195;139325;-76
2021/10/19 06:48:30;;;;;;;12.20;10.90;;;;;;;8.52;90.29;101428.50;229586;1196;138952;-77
2021/10/19 06:53:33;;;;;;;12.80;11.40;;;;;;;8.56;90.42;101431.04;229630;1196;138583;-76
2021/10/19 06:58:34;;;;;;;12.00;10.80;;;;;;;8.60;90.60;101427.23;229797;1195;138842;-75
2021/10/19 07:03:37;;;;;;;12.20;10.50;;;;;;;8.71;90.54;101426.06;230113;1195;139413;-75
2021/10/19 07:08:38;;;;;;;13.30;12.00;;;;;;;8.81;90.55;101424.11;229707;1196;139042;-76
2021/10/19 07:13:40;;;;;;;14.20;11.90;;;;;;;8.89;90.39;101426.30;229989;1195;138245;-75
2021/10/19 07:18:42;;;;;;;13.80;11.80;;;;;;;8.87;90.39;101425.02;230543;1195;138363;-75
2021/10/19 07:23:44;;;;;;;14.40;12.80;;;;;;;8.87;90.79;101423.06;229974;1197;139310;-75
2021/10/19 07:28:45;;;;;;;15.30;13.30;;;;;;;8.98;91.03;101421.05;229807;1197;138827;-74
2021/10/19 07:33:47;;;;;;;16.20;13.60;;;;;;;9.07;90.99;101409.05;229696;1195;138564;-75
2021/10/19 07:38:52;;;;;;;17.70;13.10;;;;;;;9.17;90.75;101406.42;233868;1195;138880;-76
2021/10/19 07:43:54;;;;;;;15.00;13.40;;;;;;;9.25;90.80;101414.23;234239;1195;138068;-75
2021/10/19 07:48:56;;;;;;;15.40;13.80;;;;;;;9.28;91.06;101413.59;232596;1195;139040;-74
2021/10/19 07:53:58;;;;;;;18.70;13.60;;;;;;;9.33;90.89;101413.38;230412;1187;138856;-76
2021/10/19 07:59:04;;;;;;;16.10;14.50;;;;;;;9.41;91.06;101407.88;229758;1195;138704;-76
2021/10/19 08:04:06;;;;;;;15.90;13.70;;;;;;;9.45;90.92;101412.41;229848;1195;138573;-75
2021/10/19 08:09:08;;;;;;;15.90;13.80;;;;;;;9.53;91.11;101412.30;230293;1195;139653;-75
2021/10/19 08:14:10;;;;;;;15.70;14.00;;;;;;;9.60;90.90;101412.65;231882;1195;141176;-75
2021/10/19 08:19:12;;;;;;;17.70;14.20;;;;;;;9.74;90.76;101417.41;232188;1195;139137;-76
2021/10/19 08:24:13;;;;;;;17.10;14.70;;;;;;;9.69;90.39;101415.88;232998;1195;138830;-75
2021/10/19 08:29:15;;;;;;;19.90;16.10;;;;;;;9.69;90.73;101417.75;229581;1196;138127;-75
2021/10/19 08:34:17;;;;;;;17.70;15.30;;;;;;;9.72;90.61;101414.90;229202;1194;138628;-74
2021/10/19 08:39:19;;;;;;;16.70;15.00;;;;;;;9.80;90.76;101406.19;229812;1196;139259;-71
2021/10/19 08:44:20;;;;;;;18.50;15.10;;;;;;;9.96;90.77;101411.16;229526;1195;139731;-74
2021/10/19 08:49:22;;;;;;;18.70;16.80;;;;;;;10.10;90.54;101408.88;229538;1196;139499;-75
2021/10/19 08:54:24;;;;;;;21.00;15.90;;;;;;;10.12;90.61;101411.91;230167;1196;138791;-76
2021/10/19 08:59:26;;;;;;;17.40;15.60;;;;;;;10.13;90.57;101415.33;229583;1195;141382;-74
2021/10/19 09:04:29;;;;;;;16.50;14.60;;;;;;;10.19;90.35;101404.26;229471;1195;139727;-75
2021/10/19 09:09:32;;;;;;;16.80;15.00;;;;;;;10.27;89.99;101407.66;228982;1196;139972;-75
2021/10/19 09:14:37;;;;;;;18.30;15.70;;;;;;;10.39;89.55;101403.63;229323;1199;139230;-75
2021/10/19 09:19:41;;;;;;;18.30;16.40;;;;;;;10.56;88.92;101410.33;229703;1200;138364;-76
2021/10/19 09:24:43;;;;;;;17.80;16.00;;;;;;;10.61;88.52;101417.52;229277;1196;139525;-76
2021/10/19 09:29:46;;;;;;;17.20;15.40;;;;;;;10.73;88.27;101411.39;229098;1196;139760;-76
2021/10/19 09:34:48;;;;;;;14.90;13.00;;;;;;;10.93;87.65;101408.48;229828;1196;139732;-73
2021/10/19 09:39:52;;;;;;;15.80;13.60;;;;;;;11.00;87.00;101400.11;229643;1196;139433;-75
2021/10/19 09:44:59;;;;;;;15.70;14.10;;;;;;;11.11;86.22;101388.94;230161;1196;138901;-77
2021/10/19 09:50:02;;;;;;;14.80;12.90;;;;;;;11.29;86.04;101373.84;229853;1196;138693;-77
2021/10/19 09:55:07;;;;;;;14.50;12.60;;;;;;;11.43;86.42;101372.56;229404;1196;139400;-76
2021/10/19 10:00:11;;;;;;;15.00;13.40;;;;;;;11.63;85.21;101369.93;230116;1195;139237;-74
2021/10/19 10:05:13;;;;;;;14.70;13.30;;;;;;;11.85;85.32;101362.31;229592;1196;138775;-75
2021/10/19 10:10:16;;;;;;;15.30;11.90;;;;;;;11.89;84.41;101356.46;230221;1196;138396;-75
2021/10/19 10:15:23;;;;;;;12.20;10.90;;;;;;;11.87;81.98;101355.80;230349;1196;139352;-76
2021/10/19 10:20:37;;;;;;;14.40;10.70;;;;;;;11.98;81.51;101345.82;230480;1196;139388;-76
2021/10/19 10:25:39;;;;;;;12.40;10.90;;;;;;;12.23;79.56;101339.25;230160;1196;139036;-72
2021/10/19 10:30:41;;;;;;;13.90;11.70;;;;;;;12.38;78.31;101341.45;229644;1187;139273;-76
2021/10/19 10:35:46;;;;;;;14.00;12.40;;;;;;;12.47;78.67;101338.28;229851;1196;139011;-74
2021/10/19 10:40:48;;;;;;;15.30;11.60;;;;;;;12.54;78.14;101332.69;229727;1195;139073;-75
2021/10/19 10:46:02;;;;;;;15.20;12.30;;;;;;;12.64;76.40;101324.16;230198;1196;139154;-75
2021/10/19 10:51:07;;;;;;;11.60;10.40;;;;;;;12.62;75.14;101322.46;229819;1186;138329;-75
2021/10/19 10:56:10;;;;;;;13.40;12.00;;;;;;;12.72;74.19;101321.45;229549;1196;139035;-76
2021/10/19 11:01:15;;;;;;;14.60;12.30;;;;;;;13.08;72.25;101321.95;229651;1195;139084;-76
2021/10/19 11:06:19;;;;;;;14.00;12.40;;;;;;;13.64;69.86;101314.10;229789;1196;139369;-73
2021/10/19 11:11:21;;;;;;;14.20;12.70;;;;;;;14.03;68.98;101312.02;229585;1196;139076;-75
2021/10/19 11:16:42;;;;;;;15.00;13.40;;;;;;;13.88;70.09;101308.04;229332;1196;138463;-74
2021/10/19 11:21:45;;;;;;;12.60;11.20;;;;;;;15.75;64.60;101298.58;230220;1196;138945;-74
2021/10/19 11:26:47;;;;;;;14.70;13.20;;;;;;;15.95;62.92;101296.09;229812;1196;138280;-75
2021/10/19 11:31:51;;;;;;;12.00;10.80;;;;;;;16.08;62.39;101281.95;229774;1196;138632;-75
2021/10/19 11:36:53;;;;;;;11.70;10.50;;;;;;;16.36;59.93;101289.07;230000;1196;138268;-75
2021/10/19 11:42:03;;;;;;;12.80;10.90;;;;;;;14.81;62.97;101298.04;232597;1195;138150;-76
2021/10/19 11:47:06;;;;;;;11.10;10.00;;;;;;;13.99;65.66;101288.63;233702;1195;138321;-76
2021/10/19 11:52:08;;;;;;;12.30;11.10;;;;;;;13.68;67.85;101276.36;229776;1187;138419;-77
2021/10/19 11:57:11;;;;;;;11.60;10.40;;;;;;;13.61;67.70;101263.55;230319;1190;138318;-80
2021/10/19 12:02:13;;;;;;;10.30;9.20;;;;;;;13.50;67.85;101253.15;229942;1196;138862;-75
2021/10/19 12:07:27;;;;;;;10.50;8.90;;;;;;;13.52;67.51;101233.98;229781;1196;138297;-75
2021/10/19 12:12:29;;;;;;;10.60;8.80;;;;;;;13.64;67.61;101211.17;230464;1196;139381;-74
2021/10/19 12:17:31;;;;;;;9.70;8.30;;;;;;;13.78;66.95;101211.20;229857;1196;138368;-75
2021/10/19 12:22:35;;;;;;;9.60;8.60;;;;;;;13.97;66.80;101209.61;229855;1196;138824;-76
2021/10/19 12:27:38;;;;;;;12.20;9.70;;;;;;;14.48;64.40;101192.95;229829;1202;138485;-75
2021/10/19 12:32:41;;;;;;;12.50;8.40;;;;;;;14.01;65.30;101189.09;229728;1196;138946;-74
2021/10/19 12:37:43;;;;;;;10.10;8.20;;;;;;;13.83;65.66;101189.48;230032;1196;138286;-74
2021/10/19 12:42:45;;;;;;;9.60;7.90;;;;;;;13.78;65.44;101189.75;230566;1194;138764;-75
2021/10/19 12:47:47;;;;;;;8.80;7.40;;;;;;;13.69;65.52;101183.63;229856;1196;138238;-73
2021/10/19 12:52:48;;;;;;;13.00;8.10;;;;;;;13.58;65.58;101177.62;230089;1196;137989;-75
2021/10/19 12:57:50;;;;;;;10.60;7.90;;;;;;;13.55;66.42;101172.44;229476;1196;138577;-75
2021/10/19 13:02:52;;;;;;;10.40;8.00;;;;;;;13.60;66.12;101162.76;229941;1196;139492;-74
2021/10/19 13:07:54;;;;;;;9.50;7.60;;;;;;;13.66;66.06;101167.63;229762;1196;138850;-74
2021/10/19 13:12:55;;;;;;;8.30;7.50;;;;;;;13.70;66.43;101168.45;229553;1196;141405;-74
2021/10/19 13:17:57;;;;;;;8.60;7.60;;;;;;;13.72;66.57;101168.08;229871;1196;139017;-75
2021/10/19 13:22:59;;;;;;;8.60;7.60;;;;;;;13.70;67.05;101161.69;229643;1196;138885;-75
2021/10/19 13:28:01;;;;;;;8.20;7.40;;;;;;;13.71;66.49;101151.39;229829;1196;138256;-75
2021/10/19 13:33:03;;;;;;;9.50;8.10;;;;;;;13.74;65.64;101150.33;229925;1195;138551;-74
2021/10/19 13:38:05;;;;;;;9.50;8.60;;;;;;;13.85;65.71;101153.23;229455;1196;138930;-74
2021/10/19 13:43:07;;;;;;;8.20;7.10;;;;;;;13.89;65.40;101139.63;229953;1196;138974;-75
2021/10/19 13:48:11;;;;;;;9.40;6.90;;;;;;;13.84;65.16;101125.52;230162;1196;138559;-74
2021/10/19 13:53:12;;;;;;;8.00;7.20;;;;;;;13.77;64.41;101104.75;229304;1196;138611;-75
2021/10/19 13:58:15;;;;;;;9.80;6.50;;;;;;;13.72;64.38;101099.73;229531;1196;138697;-76
2021/10/19 14:03:17;;;;;;;9.40;7.00;;;;;;;13.71;64.59;101097.36;230482;1196;138798;-76
2021/10/19 14:08:18;;;;;;;9.00;6.80;;;;;;;13.62;64.66;101105.20;230661;1195;139370;-75
2021/10/19 14:13:20;;;;;;;10.30;7.10;;;;;;;13.53;64.88;101129.58;230333;1196;138157;-80
2021/10/19 14:18:22;;;;;;;9.00;7.70;;;;;;;13.51;65.37;101134.44;230423;1196;138994;-76
2021/10/19 14:23:24;;;;;;;9.20;7.50;;;;;;;13.50;65.08;101143.53;230593;1196;139480;-78
2021/10/19 14:28:26;;;;;;;11.70;9.60;;;;;;;13.44;64.97;101134.16;230743;1195;138348;-75
2021/10/19 14:33:28;;;;;;;9.60;8.60;;;;;;;13.32;65.21;101130.27;230302;1196;138441;-75
2021/10/19 14:38:30;;;;;;;9.80;8.80;;;;;;;13.23;65.18;101117.20;230266;1195;138158;-75
2021/10/19 14:43:31;;;;;;;8.00;7.10;;;;;;;13.11;66.00;101129.48;231007;1190;139073;-76
2021/10/19 14:48:33;;;;;;;8.60;7.10;;;;;;;13.00;66.47;101121.60;230476;1196;138779;-77
2021/10/19 14:53:35;;;;;;;8.70;7.80;;;;;;;12.95;66.57;101120.13;230433;1196;138441;-75
2021/10/19 14:58:37;;;;;;;12.20;8.40;;;;;;;12.95;66.53;101110.16;230767;1196;139338;-81
2021/10/19 15:03:39;;;;;;;11.70;8.60;;;;;;;13.01;66.34;101106.10;230938;1195;139035;-78
2021/10/19 15:08:40;;;;;;;9.40;8.30;;;;;;;12.98;66.61;101096.95;231562;1196;138956;-81
2021/10/19 15:13:47;;;;;;;9.50;7.70;;;;;;;12.91;67.33;101089.55;231103;1187;138858;-78
2021/10/19 15:18:49;;;;;;;7.80;7.10;;;;;;;12.82;67.94;101086.75;230258;1195;138144;-78
2021/10/19 15:23:53;;;;;;;8.60;7.40;;;;;;;12.74;68.29;101089.98;230332;1196;139004;-75
2021/10/19 15:28:55;;;;;;;9.60;7.60;;;;;;;12.68;68.65;101088.64;230284;1196;138435;-77
2021/10/19 15:33:56;;;;;;;11.50;8.90;;;;;;;12.61;68.93;101088.11;230124;1196;138181;-76
2021/10/19 15:38:58;;;;;;;14.10;10.40;;;;;;;12.57;69.47;101081.23;229832;1196;139208;-75
2021/10/19 15:44:00;;;;;;;11.80;9.40;;;;;;;12.57;69.88;101076.08;230155;1196;140246;-75
2021/10/19 15:49:05;;;;;;;11.40;10.20;;;;;;;12.54;70.49;101076.23;230157;1197;139832;-77
2021/10/19 15:54:07;;;;;;;11.50;9.60;;;;;;;12.51;71.18;101074.94;230513;1196;139149;-75
2021/10/19 15:59:10;;;;;;;12.80;11.50;;;;;;;12.43;71.81;101076.91;229859;1190;140422;-77
2021/10/19 16:04:12;;;;;;;13.90;11.40;;;;;;;12.36;72.12;101076.34;229913;1196;139131;-76
2021/10/19 16:09:14;;;;;;;14.00;11.70;;;;;;;12.29;72.37;101069.98;230293;1196;139015;-77
2021/10/19 16:14:16;;;;;;;19.00;13.00;;;;;;;12.23;72.75;101063.63;230449;1196;140735;-77
2021/10/19 16:19:18;;;;;;;13.40;12.00;;;;;;;12.28;72.89;101066.05;229930;1197;139962;-76
2021/10/19 16:24:19;;;;;;;15.30;13.80;;;;;;;12.29;73.01;101057.10;230246;1196;138736;-74
2021/10/19 16:29:21;;;;;;;15.40;11.50;;;;;;;12.20;72.65;101056.92;230676;1195;139336;-77
2021/10/19 16:34:23;;;;;;;30.50;11.90;;;;;;;12.09;73.05;101066.04;230509;1196;139851;-75
2021/10/19 16:39:27;;;;;;;14.90;13.20;;;;;;;12.01;72.85;101069.17;230515;1197;138732;-78
2021/10/19 16:44:29;;;;;;;13.70;11.70;;;;;;;11.96;72.88;101057.72;231817;1196;138640;-70
2021/10/19 16:49:31;;;;;;;16.50;13.10;;;;;;;11.87;73.26;101054.89;232540;1196;139167;-76
2021/10/19 16:54:32;;;;;;;14.70;12.60;;;;;;;11.81;73.59;101044.71;230472;1196;206543;-76
2021/10/19 16:59:34;;;;;;;14.40;13.00;;;;;;;11.76;73.51;101038.65;230595;1196;139071;-76
2021/10/19 17:04:36;;;;;;;14.30;12.10;;;;;;;11.69;73.51;101037.20;230201;1196;138853;-79
2021/10/19 17:09:38;;;;;;;14.20;12.80;;;;;;;11.67;73.64;101034.33;230672;1196;138867;-77
2021/10/19 17:14:40;;;;;;;14.10;12.60;;;;;;;11.58;74.04;101035.25;230516;1196;138845;-77
2021/10/19 17:19:42;;;;;;;17.00;14.00;;;;;;;11.52;74.28;101033.11;230227;1196;139543;-78
2021/10/19 17:24:44;;;;;;;17.50;14.10;;;;;;;11.50;74.52;101030.80;229858;1190;139423;-77
2021/10/19 17:29:46;;;;;;;16.30;14.40;;;;;;;11.51;74.24;101026.46;230372;1196;139359;-79
2021/10/19 17:34:47;;;;;;;14.60;13.00;;;;;;;11.45;74.74;101022.66;230790;1195;139010;-76
2021/10/19 17:39:54;;;;;;;17.60;15.20;;;;;;;11.32;74.86;101019.59;229827;1196;138924;-75
2021/10/19 17:44:56;;;;;;;15.10;13.50;;;;;;;11.26;75.07;101014.36;230248;1196;138792;-76
2021/10/19 17:49:58;;;;;;;16.60;13.80;;;;;;;11.17;75.47;101013.73;230069;1196;138451;-78
2021/10/19 17:54:59;;;;;;;19.90;16.10;;;;;;;11.07;75.81;101014.48;230656;1196;138867;-77
2021/10/19 18:00:06;;;;;;;19.60;16.20;;;;;;;10.99;76.19;101017.91;230121;1196;139289;-77
2021/10/19 18:05:09;;;;;;;19.40;16.20;;;;;;;11.00;76.11;101016.52;230006;1195;139356;-76
2021/10/19 18:10:11;;;;;;;20.70;18.40;;;;;;;10.99;76.13;101013.45;230139;1197;138959;-77
2021/10/19 18:15:16;;;;;;;18.60;16.50;;;;;;;10.94;76.34;100999.30;230130;1196;142406;-79
2021/10/19 18:20:17;;;;;;;26.50;19.20;;;;;;;10.90;76.25;100991.41;230653;1195;138718;-74
2021/10/19 18:25:20;;;;;;;21.90;17.70;;;;;;;10.86;76.30;100976.90;230214;1197;139470;-79
2021/10/19 18:30:24;;;;;;;22.60;17.50;;;;;;;10.87;76.05;100970.11;231074;1196;139280;-77
2021/10/19 18:35:26;;;;;;;17.70;15.80;;;;;;;10.94;75.46;100967.58;230867;1196;140112;-78
2021/10/19 18:40:28;;;;;;;16.80;14.60;;;;;;;10.91;75.32;100965.92;230451;1196;139353;-82
2021/10/19 18:45:31;;;;;;;15.90;14.10;;;;;;;10.86;75.29;100954.76;230072;1196;139819;-77
2021/10/19 18:50:33;;;;;;;21.10;14.90;;;;;;;10.81;75.52;100951.81;230038;1197;138926;-77
2021/10/19 18:55:37;;;;;;;18.10;15.20;;;;;;;10.77;75.74;100946.61;230494;1187;139704;-76
2021/10/19 19:00:40;;;;;;;18.50;15.00;;;;;;;10.79;75.51;100946.36;230626;1196;138907;-78
2021/10/19 19:05:42;;;;;;;18.00;15.80;;;;;;;10.80;75.23;100943.15;229428;1196;138472;-80
2021/10/19 19:10:44;;;;;;;16.70;14.90;;;;;;;10.75;75.37;100935.78;230694;1195;138531;-76
2021/10/19 19:15:46;;;;;;;17.80;14.90;;;;;;;10.69;75.62;100922.30;230598;1196;138673;-78
2021/10/19 19:20:48;;;;;;;20.20;17.00;;;;;;;10.62;75.81;100915.92;229964;1196;143880;-79
2021/10/19 19:25:50;;;;;;;20.10;17.00;;;;;;;10.58;76.03;100915.70;229855;1190;139876;-78
2021/10/19 19:30:52;;;;;;;21.20;16.50;;;;;;;10.56;76.20;100913.83;230267;1195;139394;-77
2021/10/19 19:35:54;;;;;;;17.30;14.60;;;;;;;10.60;75.81;100905.70;230849;1195;140895;-78
2021/10/19 19:40:56;;;;;;;15.80;14.20;;;;;;;10.59;75.67;100897.48;230430;1195;139998;-78
2021/10/19 19:45:58;;;;;;;15.80;13.20;;;;;;;10.54;75.90;100896.66;230468;1196;139864;-78
2021/10/19 19:50:59;;;;;;;20.50;15.00;;;;;;;10.52;75.83;100890.85;230616;1196;140224;-77
2021/10/19 19:56:01;;;;;;;15.40;13.50;;;;;;;10.52;75.99;100894.23;230907;1195;140022;-77
2021/10/19 20:01:04;;;;;;;15.00;13.30;;;;;;;10.58;75.59;100890.36;230881;1195;140429;-79
2021/10/19 20:06:06;;;;;;;16.20;13.40;;;;;;;10.66;75.26;100893.20;230598;1195;139539;-78
2021/10/19 20:11:09;;;;;;;13.10;11.50;;;;;;;10.69;74.98;100888.80;230727;1196;138767;-77
2021/10/19 20:16:13;;;;;;;10.80;9.00;;;;;;;10.73;74.65;100878.88;230454;1195;139540;-77
2021/10/19 20:21:16;;;;;;;11.50;10.20;;;;;;;10.78;74.27;100874.02;230790;1195;138461;-76
2021/10/19 20:26:18;;;;;;;12.90;10.40;;;;;;;10.83;74.21;100877.80;229920;1195;140214;-77
2021/10/19 20:31:19;;;;;;;11.30;9.30;;;;;;;10.90;73.94;100878.73;230552;1196;139018;-80
2021/10/19 20:36:21;;;;;;;11.10;8.90;;;;;;;10.98;73.61;100873.77;230605;1195;138979;-77
2021/10/19 20:41:24;;;;;;;10.80;8.90;;;;;;;10.98;73.71;100870.23;230466;1195;138711;-76
2021/10/19 20:46:26;;;;;;;9.50;8.50;;;;;;;10.96;73.77;100862.85;230152;1196;139149;-77
2021/10/19 20:51:28;;;;;;;9.30;8.40;;;;;;;10.93;73.84;100863.85;230045;1195;138947;-76
2021/10/19 20:56:38;;;;;;;9.50;8.50;;;;;;;10.89;74.11;100860.48;230084;1194;138595;-76
2021/10/19 21:01:40;;;;;;;14.20;9.20;;;;;;;10.88;74.23;100855.81;230773;1195;139721;-75
2021/10/19 21:06:42;;;;;;;11.70;9.30;;;;;;;10.88;74.30;100851.25;229624;1195;139690;-78
2021/10/19 21:11:44;;;;;;;10.80;9.20;;;;;;;10.90;74.07;100842.96;230817;1194;138464;-76
2021/10/19 21:16:45;;;;;;;11.00;9.20;;;;;;;10.84;74.24;100838.58;230829;1196;138674;-75
2021/10/19 21:21:47;;;;;;;11.90;9.20;;;;;;;10.80;74.28;100834.39;230628;1196;138995;-76
2021/10/19 21:26:49;;;;;;;9.60;8.60;;;;;;;10.75;74.38;100820.07;230888;1196;138442;-76
2021/10/19 21:31:51;;;;;;;10.20;8.80;;;;;;;10.71;74.23;100809.11;230738;1195;139046;-75
2021/10/19 21:36:53;;;;;;;12.50;9.40;;;;;;;10.72;74.21;100799.34;230514;1196;139110;-76
2021/10/19 21:41:55;;;;;;;11.00;9.60;;;;;;;10.69;74.28;100792.27;230360;1196;139465;-76
2021/10/19 21:46:56;;;;;;;9.90;8.20;;;;;;;10.64;74.53;100786.58;233359;1195;138393;-75
2021/10/19 21:51:59;;;;;;;12.00;9.30;;;;;;;10.57;74.62;100781.86;235170;1195;137492;-76
2021/10/19 21:57:02;;;;;;;11.60;9.50;;;;;;;10.51;74.95;100774.73;233833;1195;138552;-75
2021/10/19 22:02:03;;;;;;;12.40;9.70;;;;;;;10.48;75.07;100764.57;233253;1181;139051;-75
2021/10/19 22:07:05;;;;;;;13.10;10.20;;;;;;;10.50;74.78;100759.48;230561;1195;139159;-76
2021/10/19 22:12:07;;;;;;;10.80;9.70;;;;;;;10.49;74.77;100753.52;230612;1196;138939;-77
2021/10/19 22:17:10;;;;;;;12.70;10.40;;;;;;;10.48;74.69;100748.86;230731;1196;139195;-77
2021/10/19 22:22:12;;;;;;;11.00;9.90;;;;;;;10.41;75.08;100749.16;230586;1195;139081;-76
2021/10/19 22:27:14;;;;;;;10.40;9.30;;;;;;;10.36;75.10;100751.06;230456;1196;139264;-76
2021/10/19 22:32:16;;;;;;;11.70;9.50;;;;;;;10.38;74.95;100754.36;230730;1194;138976;-77
2021/10/19 22:37:22;;;;;;;12.20;10.00;;;;;;;10.41;74.91;100751.44;230751;1187;139194;-76